Time;durP1;ratioP1;P1;durP2;ratioP2;P2;SDS_P1;SDS_P2;PMS_P1;PMS_P2;Temp;Humidity;BMP_temperature;BMP_pressure;BME280_temperature;BME280_humidity;BME280_pressure;Samples;Min_cycle;Max_cycle;Signal;HPM_P1;HPM_P2
2022/12/25 00:00:29;;;;;;;0.50;0.50;;;4.40;99.90;;;;;;5155721;27;20054;-78
2022/12/25 00:02:56;;;;;;;1.65;0.75;;;4.40;99.90;;;;;;5156159;27;20039;-78
2022/12/25 00:05:22;;;;;;;0.57;0.57;;;4.40;99.90;;;;;;5155572;27;20657;-77
2022/12/25 00:07:48;;;;;;;3.38;1.50;;;4.50;99.90;;;;;;5155387;27;20046;-77
2022/12/25 00:10:13;;;;;;;0.57;0.57;;;4.40;99.90;;;;;;5155531;27;20124;-77
2022/12/25 00:12:39;;;;;;;0.08;0.08;;;4.40;99.90;;;;;;5155629;27;20042;-77
2022/12/25 00:15:05;;;;;;;0.65;0.65;;;4.40;99.90;;;;;;5155774;27;20043;-77
2022/12/25 00:17:31;;;;;;;1.20;1.10;;;4.50;99.90;;;;;;5155432;27;20075;-78
2022/12/25 00:19:57;;;;;;;1.17;1.10;;;4.60;99.90;;;;;;5155650;27;20432;-78
2022/12/25 00:22:22;;;;;;;0.50;0.50;;;4.60;99.90;;;;;;5155400;27;20531;-78
2022/12/25 00:24:48;;;;;;;0.50;0.50;;;4.70;99.90;;;;;;5155344;27;20485;-78
2022/12/25 00:27:14;;;;;;;2.05;1.50;;;4.80;99.90;;;;;;5154548;27;20038;-79
2022/12/25 00:29:39;;;;;;;1.10;1.00;;;4.80;99.90;;;;;;5153447;27;20047;-78
2022/12/25 00:32:05;;;;;;;0.90;0.90;;;4.80;99.90;;;;;;5153848;27;20048;-78
2022/12/25 00:34:31;;;;;;;0.63;0.63;;;4.90;99.90;;;;;;5154262;27;20489;-78
2022/12/25 00:36:56;;;;;;;1.67;0.73;;;4.90;99.90;;;;;;5153914;27;20035;-78
2022/12/25 00:39:22;;;;;;;1.38;1.08;;;4.90;99.90;;;;;;5154141;27;20038;-78
2022/12/25 00:44:32;;;;;;;1.92;1.08;;;4.80;99.90;;;;;;5154219;27;20103;-78
2022/12/25 00:46:57;;;;;;;1.85;0.95;;;4.90;99.90;;;;;;5153841;27;20446;-78
2022/12/25 00:49:23;;;;;;;3.85;1.63;;;5.10;99.90;;;;;;5154420;27;20071;-78
2022/12/25 00:51:49;;;;;;;1.48;1.38;;;5.20;99.90;;;;;;5154377;27;20046;-78
2022/12/25 00:54:15;;;;;;;0.03;0.03;;;5.20;99.90;;;;;;5154058;27;20034;-78
2022/12/25 00:56:41;;;;;;;2.53;1.52;;;5.20;99.90;;;;;;5153999;27;20050;-78
2022/12/25 00:59:06;;;;;;;1.17;1.08;;;5.10;99.90;;;;;;5153990;27;20050;-78
2022/12/25 01:01:33;;;;;;;0.60;0.38;;;5.00;99.90;;;;;;5153878;27;20508;-79
2022/12/25 01:03:59;;;;;;;1.30;0.80;;;5.00;99.90;;;;;;5154196;27;20408;-79
2022/12/25 01:06:25;;;;;;;11.82;1.15;;;4.90;99.90;;;;;;5153446;27;20057;-79
2022/12/25 01:11:35;;;;;;;1.33;1.23;;;4.90;99.90;;;;;;5153980;27;20051;-79
2022/12/25 01:14:01;;;;;;;1.48;0.73;;;4.90;99.90;;;;;;5153600;27;20038;-79
2022/12/25 01:16:27;;;;;;;27.00;2.65;;;4.90;99.90;;;;;;5153860;27;20042;-79
2022/12/25 01:18:53;;;;;;;1.13;0.97;;;4.90;99.90;;;;;;5153933;27;20035;-79
2022/12/25 01:21:20;;;;;;;2.28;1.75;;;5.00;99.90;;;;;;5153891;27;20039;-78
2022/12/25 01:23:47;;;;;;;2.65;1.38;;;5.10;99.90;;;;;;5153996;27;20035;-78
2022/12/25 01:26:14;;;;;;;0.73;0.65;;;5.20;99.90;;;;;;5153941;27;20519;-78
2022/12/25 01:28:40;;;;;;;1.08;0.95;;;5.40;99.90;;;;;;5153904;27;20050;-78
2022/12/25 01:31:10;;;;;;;0.40;0.40;;;5.60;99.90;;;;;;5154007;27;20473;-78
2022/12/25 01:33:36;;;;;;;2.67;2.47;;;5.70;99.90;;;;;;5135298;27;20050;-78
2022/12/25 01:36:02;;;;;;;6.15;1.20;;;5.90;99.90;;;;;;5153772;27;20085;-78
2022/12/25 01:38:27;;;;;;;2.00;1.85;;;5.90;99.90;;;;;;5153557;27;20062;-78
2022/12/25 01:40:53;;;;;;;2.28;1.10;;;6.00;99.90;;;;;;5153518;27;20038;-78
2022/12/25 01:43:23;;;;;;;8.13;1.85;;;6.10;99.90;;;;;;5154804;27;20047;-78
2022/12/25 01:45:51;;;;;;;0.80;0.80;;;6.10;99.90;;;;;;5157891;27;20156;-78
2022/12/25 01:48:20;;;;;;;2.30;1.88;;;6.20;99.90;;;;;;5157963;27;20047;-78
2022/12/25 01:50:59;;;;;;;0.93;0.90;;;6.20;99.90;;;;;;5157574;27;20047;-78
2022/12/25 01:53:25;;;;;;;1.67;1.58;;;6.20;99.90;;;;;;5157198;27;20034;-79
2022/12/25 01:55:55;;;;;;;0.50;0.50;;;7.20;99.90;;;;;;5157441;27;20043;-79
2022/12/25 01:58:21;;;;;;;0.90;0.57;;;6.30;99.90;;;;;;5157691;27;20047;-79
2022/12/25 02:00:47;;;;;;;0.55;0.55;;;6.30;99.90;;;;;;5157076;27;20049;-79
2022/12/25 02:03:13;;;;;;;0.85;0.68;;;6.40;99.90;;;;;;5156762;27;20473;-79
2022/12/25 02:05:39;;;;;;;0.85;0.68;;;6.40;99.90;;;;;;5157381;27;20039;-79
2022/12/25 02:08:09;;;;;;;1.40;1.30;;;6.50;99.90;;;;;;5156878;27;20445;-79
2022/12/25 02:10:37;;;;;;;0.75;0.75;;;6.60;99.90;;;;;;5157388;27;20046;-79
2022/12/25 02:13:04;;;;;;;1.73;1.55;;;6.60;99.90;;;;;;5156831;27;20034;-79
2022/12/25 02:15:56;;;;;;;0.90;0.85;;;6.60;99.90;;;;;;5157146;27;20118;-79
2022/12/25 02:18:33;;;;;;;1.45;0.60;;;6.60;99.90;;;;;;5138646;27;20453;-79
2022/12/25 02:21:11;;;;;;;0.28;0.28;;;6.60;99.90;;;;;;5156943;27;20092;-79
2022/12/25 02:23:37;;;;;;;0.82;0.82;;;6.70;99.90;;;;;;5157325;27;20039;-79
2022/12/25 02:26:08;;;;;;;1.75;1.17;;;6.70;99.90;;;;;;5157671;27;20057;-79
2022/12/25 02:28:44;;;;;;;0.80;0.80;;;6.10;99.90;;;;;;5158269;27;20042;-79
2022/12/25 02:31:15;;;;;;;0.88;0.68;;;6.80;99.90;;;;;;5157732;27;20047;-79
2022/12/25 02:34:09;;;;;;;2.40;1.63;;;6.80;99.90;;;;;;5157838;27;20039;-79
2022/12/25 02:36:43;;;;;;;1.25;0.77;;;6.80;99.90;;;;;;5148311;27;20386;-79
2022/12/25 02:39:58;;;;;;;0.98;0.98;;;6.80;99.90;;;;;;5157463;27;20050;-79
2022/12/25 03:07:33;;;;;;;2.55;1.65;;;7.00;99.90;;;;;;5159383;27;20053;-79
2022/12/25 03:12:55;;;;;;;3.45;1.75;;;7.10;99.90;;;;;;5159714;27;20080;-79
2022/12/25 03:18:11;;;;;;;0.10;0.10;;;7.10;99.90;;;;;;5156801;27;20470;-79
2022/12/25 03:28:55;;;;;;;2.38;1.75;;;7.00;99.90;;;;;;5157901;27;20079;-79
2022/12/25 03:31:48;;;;;;;0.95;0.95;;;7.10;99.90;;;;;;5156534;27;20113;-79
2022/12/25 04:37:03;;;;;;;3.85;2.47;;;7.50;99.90;;;;;;5154227;27;20087;-77
2022/12/25 04:39:28;;;;;;;1.48;1.05;;;7.50;99.90;;;;;;5154069;27;20070;-77
2022/12/25 04:41:54;;;;;;;1.65;0.68;;;7.50;99.90;;;;;;5154267;27;20420;-77
2022/12/25 04:44:19;;;;;;;1.65;1.17;;;7.60;99.90;;;;;;5154126;27;20050;-77
2022/12/25 04:46:45;;;;;;;1.40;1.30;;;7.60;99.90;;;;;;5154235;27;20133;-77
2022/12/25 04:49:10;;;;;;;1.88;0.75;;;7.60;99.90;;;;;;5154159;27;20054;-77
2022/12/25 04:51:36;;;;;;;1.52;0.75;;;7.50;99.90;;;;;;5154224;27;20050;-77
2022/12/25 04:54:02;;;;;;;3.72;2.72;;;7.60;99.90;;;;;;5154167;27;20158;-77
2022/12/25 04:56:28;;;;;;;0.95;0.95;;;7.60;99.90;;;;;;5153444;27;20034;-77
2022/12/25 04:58:54;;;;;;;4.68;2.40;;;7.60;99.90;;;;;;5153100;27;20446;-77
2022/12/25 05:01:20;;;;;;;20.42;3.17;;;7.60;99.90;;;;;;5153990;27;20103;-77
2022/12/25 05:03:45;;;;;;;3.95;3.20;;;7.70;99.90;;;;;;5154327;27;20047;-77
2022/12/25 05:06:11;;;;;;;4.20;1.85;;;7.70;99.90;;;;;;5153932;27;20377;-77
2022/12/25 05:08:37;;;;;;;3.47;1.77;;;7.70;99.90;;;;;;5153983;27;20417;-77
2022/12/25 05:11:08;;;;;;;2.28;2.08;;;7.80;99.90;;;;;;5153645;27;20047;-77
2022/12/25 05:13:34;;;;;;;4.35;1.73;;;8.00;99.90;;;;;;5153973;27;20553;-77
2022/12/25 05:16:02;;;;;;;3.50;2.22;;;8.60;99.90;;;;;;5153731;27;20070;-77
2022/12/25 05:18:28;;;;;;;4.47;1.70;;;7.80;99.90;;;;;;5154836;27;20160;-77
2022/12/25 05:20:54;;;;;;;0.47;0.47;;;7.80;99.90;;;;;;5157738;27;20509;-77
2022/12/25 05:23:22;;;;;;;2.53;1.45;;;7.80;99.90;;;;;;5157939;27;20117;-77
2022/12/25 05:25:47;;;;;;;0.75;0.75;;;7.90;99.90;;;;;;5157642;27;20034;-77
2022/12/25 05:28:13;;;;;;;1.75;1.65;;;7.90;99.90;;;;;;5157725;27;20045;-77
2022/12/25 05:30:39;;;;;;;0.93;0.88;;;7.90;99.90;;;;;;5157896;27;20038;-77
2022/12/25 05:33:05;;;;;;;0.80;0.73;;;8.00;99.90;;;;;;5157738;27;20545;-77
2022/12/25 05:35:30;;;;;;;7.88;2.03;;;8.00;99.90;;;;;;5157966;27;20046;-77
2022/12/25 05:37:56;;;;;;;0.95;0.88;;;8.00;99.90;;;;;;5157134;27;20035;-77
2022/12/25 05:40:22;;;;;;;5.55;1.42;;;8.00;99.90;;;;;;5157267;27;20088;-77
2022/12/25 05:42:47;;;;;;;0.73;0.45;;;8.00;99.90;;;;;;5157331;27;20054;-77
2022/12/25 05:45:13;;;;;;;6.00;3.13;;;8.00;99.90;;;;;;5157526;27;20108;-77
2022/12/25 05:47:38;;;;;;;6.80;3.22;;;8.00;99.90;;;;;;5157086;27;20139;-77
2022/12/25 05:50:05;;;;;;;1.73;1.63;;;8.00;99.90;;;;;;5156631;27;20041;-77
2022/12/25 05:52:31;;;;;;;1.58;1.48;;;8.00;99.90;;;;;;5157334;27;20065;-77
2022/12/25 05:54:58;;;;;;;6.72;3.35;;;8.00;99.90;;;;;;5157425;27;20485;-77
2022/12/25 05:57:23;;;;;;;1.05;0.70;;;8.00;99.90;;;;;;5156894;27;20046;-77
2022/12/25 05:59:49;;;;;;;2.33;2.13;;;8.10;99.90;;;;;;5157421;27;20046;-77
2022/12/25 06:02:15;;;;;;;1.45;1.35;;;8.10;99.90;;;;;;5157308;27;20462;-77
2022/12/25 06:04:40;;;;;;;2.47;2.17;;;8.10;99.90;;;;;;5157218;27;20035;-77
2022/12/25 06:07:06;;;;;;;2.53;2.00;;;8.00;99.90;;;;;;5138444;27;20101;-77
2022/12/25 06:09:31;;;;;;;1.85;1.27;;;8.10;99.90;;;;;;5156949;27;20094;-77
2022/12/25 06:11:57;;;;;;;6.60;3.78;;;8.10;99.90;;;;;;5156430;27;20070;-77
2022/12/25 06:14:22;;;;;;;0.68;0.68;;;8.10;99.90;;;;;;5156886;27;20046;-77
2022/12/25 06:16:52;;;;;;;1.52;1.13;;;8.20;99.90;;;;;;5156875;27;20099;-77
2022/12/25 06:19:19;;;;;;;1.40;1.30;;;8.20;99.90;;;;;;5156887;27;20042;-77
2022/12/25 06:21:45;;;;;;;3.08;2.08;;;8.20;99.90;;;;;;5156414;27;20035;-77
2022/12/25 06:24:10;;;;;;;2.53;2.15;;;8.10;99.90;;;;;;5156431;27;20046;-77
2022/12/25 06:26:36;;;;;;;2.22;1.95;;;8.10;99.90;;;;;;5156943;27;20095;-77
2022/12/25 06:29:02;;;;;;;3.70;1.95;;;8.10;99.90;;;;;;5156435;27;20042;-77
2022/12/25 06:31:27;;;;;;;6.03;1.42;;;8.10;99.90;;;;;;5156567;27;20039;-78
2022/12/25 06:33:53;;;;;;;0.98;0.93;;;8.10;99.90;;;;;;5156452;27;20455;-78
2022/12/25 06:36:21;;;;;;;1.05;1.00;;;8.10;99.90;;;;;;5155661;27;20137;-77
2022/12/25 06:38:47;;;;;;;5.95;2.55;;;8.10;99.90;;;;;;5156381;27;20039;-78
2022/12/25 06:41:16;;;;;;;4.00;1.95;;;8.10;99.90;;;;;;5156093;27;20050;-78
2022/12/25 06:43:42;;;;;;;2.33;2.10;;;8.20;99.90;;;;;;5156330;27;20389;-78
2022/12/25 06:46:10;;;;;;;1.15;1.08;;;8.20;99.90;;;;;;5156265;27;20051;-78
2022/12/25 06:48:38;;;;;;;3.33;1.48;;;8.20;99.90;;;;;;5156358;27;20401;-78
2022/12/25 06:51:04;;;;;;;1.83;1.73;;;8.30;99.90;;;;;;5155823;27;20047;-78
2022/12/25 06:53:30;;;;;;;1.45;1.00;;;8.20;99.90;;;;;;5155958;27;20034;-78
2022/12/25 06:56:20;;;;;;;2.90;1.75;;;8.30;99.90;;;;;;5155911;27;20050;-78
2022/12/25 06:58:48;;;;;;;1.73;1.17;;;8.30;99.90;;;;;;5156174;27;20397;-77
2022/12/25 07:01:24;;;;;;;2.72;2.38;;;8.30;99.90;;;;;;5155674;27;20042;-77
2022/12/25 07:03:53;;;;;;;2.70;1.90;;;8.20;99.90;;;;;;5120235;27;20046;-78
2022/12/25 07:06:18;;;;;;;3.08;2.55;;;8.20;99.90;;;;;;5155939;27;20099;-78
2022/12/25 07:08:44;;;;;;;1.55;1.05;;;8.20;99.90;;;;;;5156158;27;20038;-78
2022/12/25 07:11:10;;;;;;;0.93;0.88;;;8.20;99.90;;;;;;5155533;27;20038;-78
2022/12/25 07:13:35;;;;;;;1.88;1.70;;;8.20;99.90;;;;;;5155773;27;20083;-78
2022/12/25 07:16:03;;;;;;;3.25;2.00;;;8.20;99.90;;;;;;5154519;27;20083;-78
2022/12/25 07:18:29;;;;;;;2.72;2.17;;;8.30;99.90;;;;;;5155723;27;20058;-78
2022/12/25 07:20:55;;;;;;;1.35;1.20;;;8.30;99.90;;;;;;5155854;27;20042;-78
2022/12/25 07:23:22;;;;;;;0.60;0.60;;;8.20;99.90;;;;;;5155840;27;20133;-78
2022/12/25 07:25:55;;;;;;;1.65;1.45;;;8.20;99.90;;;;;;5155576;27;20477;-78
2022/12/25 07:28:20;;;;;;;6.40;2.10;;;8.30;99.90;;;;;;5155394;27;20034;-78
2022/12/25 07:30:46;;;;;;;1.25;1.10;;;8.30;99.90;;;;;;5155341;27;20035;-78
2022/12/25 07:33:11;;;;;;;1.55;0.70;;;8.30;99.90;;;;;;5155054;27;20042;-78
2022/12/25 07:35:37;;;;;;;1.92;1.45;;;8.40;99.90;;;;;;5155675;27;20069;-78
2022/12/25 07:38:03;;;;;;;4.65;2.10;;;8.40;99.90;;;;;;5155132;27;20105;-78
2022/12/25 07:40:29;;;;;;;2.25;2.05;;;8.40;99.90;;;;;;5154932;27;20038;-78
2022/12/25 07:42:54;;;;;;;2.20;2.00;;;8.40;99.90;;;;;;5154753;27;20039;-78
2022/12/25 07:45:20;;;;;;;0.93;0.85;;;8.40;99.90;;;;;;5155308;27;20481;-78
2022/12/25 07:47:46;;;;;;;1.65;1.55;;;8.40;99.90;;;;;;5154849;27;20043;-78
2022/12/25 07:50:11;;;;;;;11.55;2.17;;;8.40;99.90;;;;;;5155139;27;20091;-78
2022/12/25 07:52:37;;;;;;;2.88;1.90;;;8.40;99.90;;;;;;5155078;27;20039;-78
2022/12/25 07:55:03;;;;;;;0.50;0.50;;;8.40;99.90;;;;;;5154945;27;20043;-78
2022/12/25 07:57:29;;;;;;;0.68;0.60;;;8.40;99.90;;;;;;5154803;27;20122;-78
2022/12/25 07:59:54;;;;;;;3.97;2.47;;;8.50;99.90;;;;;;5154664;27;20036;-78
2022/12/25 08:02:26;;;;;;;2.25;2.00;;;8.50;99.90;;;;;;5154866;27;20392;-78
2022/12/25 08:04:55;;;;;;;1.95;1.02;;;8.50;99.90;;;;;;5154957;27;20057;-78
2022/12/25 08:07:20;;;;;;;0.80;0.75;;;8.50;99.90;;;;;;5154909;27;20085;-78
2022/12/25 08:09:46;;;;;;;2.05;1.67;;;8.50;99.90;;;;;;5154617;27;20070;-78
2022/12/25 08:12:12;;;;;;;0.40;0.40;;;8.60;99.90;;;;;;5154529;27;20477;-78
2022/12/25 08:14:37;;;;;;;1.42;1.33;;;8.50;99.90;;;;;;5153655;27;20043;-78
2022/12/25 08:17:03;;;;;;;1.00;0.80;;;8.50;99.90;;;;;;5150801;27;20091;-78
2022/12/25 08:19:29;;;;;;;15.65;1.23;;;8.50;99.90;;;;;;5151159;27;20034;-78
2022/12/25 08:21:54;;;;;;;1.52;1.23;;;8.50;99.90;;;;;;5151505;27;20050;-78
2022/12/25 08:24:20;;;;;;;1.35;1.25;;;8.50;99.90;;;;;;5152220;27;20514;-79
2022/12/25 08:26:46;;;;;;;1.33;1.15;;;8.50;99.90;;;;;;5154457;27;20121;-79
2022/12/25 08:29:12;;;;;;;1.90;1.05;;;8.50;99.90;;;;;;5154296;27;20069;-79
2022/12/25 08:31:39;;;;;;;0.70;0.55;;;8.50;99.90;;;;;;5153957;27;20481;-79
2022/12/25 08:34:05;;;;;;;13.25;1.80;;;8.50;99.90;;;;;;5154445;27;20031;-79
2022/12/25 08:36:31;;;;;;;2.05;1.33;;;8.50;99.90;;;;;;5153783;27;20079;-79
2022/12/25 08:38:57;;;;;;;0.45;0.45;;;8.50;99.90;;;;;;5151052;27;20093;-77
2022/12/25 08:41:22;;;;;;;1.75;1.55;;;8.60;99.90;;;;;;5152565;27;20043;-79
2022/12/25 08:43:48;;;;;;;1.88;1.40;;;8.60;99.90;;;;;;5154582;27;20390;-79
2022/12/25 08:46:14;;;;;;;0.47;0.40;;;8.60;99.90;;;;;;5153673;27;20058;-79
2022/12/25 08:48:47;;;;;;;0.40;0.40;;;8.60;99.90;;;;;;5154100;27;20501;-80
2022/12/25 08:51:15;;;;;;;5.05;0.95;;;8.60;99.90;;;;;;5153943;27;20043;-79
2022/12/25 08:53:46;;;;;;;2.50;1.92;;;8.60;99.90;;;;;;5156433;27;20038;-79
2022/12/25 08:56:13;;;;;;;3.83;1.70;;;8.60;99.90;;;;;;5157856;27;20031;-79
2022/12/25 08:58:38;;;;;;;1.52;1.13;;;8.50;99.90;;;;;;5160794;27;20416;-79
2022/12/25 09:01:05;;;;;;;0.95;0.88;;;8.50;99.90;;;;;;5162304;27;20039;-79
2022/12/25 09:03:31;;;;;;;0.63;0.43;;;8.50;99.90;;;;;;5161404;27;20034;-79
2022/12/25 09:06:04;;;;;;;1.52;1.05;;;8.40;99.90;;;;;;5162650;27;20113;-79
2022/12/25 09:08:30;;;;;;;1.27;1.17;;;8.40;99.90;;;;;;5160929;27;20059;-79
2022/12/25 09:10:55;;;;;;;5.28;1.23;;;8.40;99.90;;;;;;5157718;27;20127;-79
2022/12/25 09:13:21;;;;;;;6.13;2.08;;;8.70;99.90;;;;;;5158179;27;20079;-79
2022/12/25 09:15:47;;;;;;;4.75;1.00;;;9.60;99.90;;;;;;5156763;27;20045;-79
2022/12/25 09:18:12;;;;;;;0.13;0.13;;;8.40;99.90;;;;;;5157443;27;20031;-80
2022/12/25 09:20:38;;;;;;;4.82;2.13;;;8.40;99.90;;;;;;5158200;27;20416;-79
2022/12/25 09:23:03;;;;;;;2.10;2.00;;;8.50;99.90;;;;;;5157431;27;20121;-79
2022/12/25 09:25:29;;;;;;;1.15;0.77;;;9.40;99.90;;;;;;5157686;27;20047;-79
2022/12/25 09:27:55;;;;;;;0.70;0.55;;;8.50;99.90;;;;;;5157787;27;20444;-80
2022/12/25 09:30:21;;;;;;;0.40;0.40;;;8.50;99.90;;;;;;5157601;27;20081;-79
2022/12/25 09:32:46;;;;;;;0.77;0.77;;;8.50;99.90;;;;;;5157680;27;20082;-79
2022/12/25 09:35:13;;;;;;;0.40;0.40;;;9.50;99.90;;;;;;5157251;27;20042;-79
2022/12/25 09:37:39;;;;;;;1.88;1.40;;;8.50;99.90;;;;;;5157390;27;20038;-79
2022/12/25 09:40:06;;;;;;;3.83;1.20;;;8.50;99.90;;;;;;5156711;27;20045;-79
2022/12/25 09:42:33;;;;;;;0.35;0.35;;;8.50;99.90;;;;;;5157229;27;20051;-79
2022/12/25 09:45:12;;;;;;;1.90;1.50;;;8.50;99.90;;;;;;5156895;27;20035;-77
2022/12/25 09:47:42;;;;;;;0.65;0.55;;;8.60;99.90;;;;;;5154295;27;20062;-78
2022/12/25 09:50:23;;;;;;;0.68;0.63;;;8.50;99.90;;;;;;5154082;27;20488;-79
2022/12/25 09:53:11;;;;;;;1.42;0.60;;;8.50;99.90;;;;;;5153958;27;20046;-79
2022/12/25 09:55:50;;;;;;;0.10;0.10;;;9.50;99.90;;;;;;5154390;27;20062;-79
2022/12/25 09:58:16;;;;;;;0.55;0.30;;;8.50;99.90;;;;;;5153937;27;20393;-79
2022/12/25 10:01:02;;;;;;;0.55;0.43;;;8.50;99.90;;;;;;5153299;27;20039;-79
2022/12/25 10:03:45;;;;;;;3.23;0.47;;;8.60;99.90;;;;;;5152231;27;20042;-78
2022/12/25 10:06:17;;;;;;;0.10;0.10;;;8.60;99.90;;;;;;5153597;27;20035;-78
2022/12/25 10:09:14;;;;;;;0.65;0.63;;;8.70;99.90;;;;;;5153841;27;20051;-78
2022/12/25 10:11:46;;;;;;;;;;;8.70;99.90;;;;;;5153715;27;20485;-78
2022/12/25 10:14:40;;;;;;;2.13;0.98;;;8.70;99.90;;;;;;5153863;27;19926;-78
2022/12/25 10:17:25;;;;;;;0.30;0.30;;;8.70;99.90;;;;;;5152503;27;20504;-78
2022/12/25 10:20:21;;;;;;;2.00;0.95;;;8.70;99.90;;;;;;5151084;27;20035;-78
2022/12/25 10:22:51;;;;;;;1.55;0.90;;;8.80;99.90;;;;;;5151204;27;20421;-78
2022/12/25 10:25:21;;;;;;;0.55;0.55;;;8.80;99.90;;;;;;5152935;27;20071;-78
2022/12/25 10:27:59;;;;;;;0.17;0.10;;;8.80;99.90;;;;;;5149438;27;20125;-78
2022/12/25 10:30:27;;;;;;;0.32;0.28;;;8.80;99.90;;;;;;5152698;27;20043;-79
2022/12/25 10:32:55;;;;;;;0.65;0.65;;;8.80;99.90;;;;;;5152419;27;20046;-79
2022/12/25 10:35:25;;;;;;;0.00;0.00;;;8.80;99.90;;;;;;5151231;27;20102;-78
2022/12/25 10:38:01;;;;;;;1.02;0.47;;;8.80;99.90;;;;;;5152487;27;20031;-78
2022/12/25 10:40:51;;;;;;;1.05;1.05;;;8.90;99.90;;;;;;5153695;27;20459;-78
2022/12/25 10:43:37;;;;;;;1.13;1.00;;;8.90;99.90;;;;;;5152741;27;20052;-78
2022/12/25 10:46:09;;;;;;;11.35;2.85;;;8.80;99.90;;;;;;5150568;27;20055;-78
2022/12/25 10:48:42;;;;;;;0.70;0.60;;;8.80;99.90;;;;;;5152267;27;20042;-78
2022/12/25 10:51:08;;;;;;;0.50;0.50;;;8.80;99.90;;;;;;5152783;27;20043;-79
2022/12/25 10:53:39;;;;;;;2.40;1.05;;;8.90;99.90;;;;;;5152814;27;20042;-78
2022/12/25 10:56:06;;;;;;;0.43;0.43;;;9.20;99.90;;;;;;5147258;27;20074;-78
2022/12/25 10:58:32;;;;;;;0.22;0.22;;;9.00;99.90;;;;;;5152714;27;20075;-78
2022/12/25 11:01:03;;;;;;;0.52;0.50;;;9.00;99.90;;;;;;5152077;27;20130;-78
2022/12/25 11:03:34;;;;;;;0.28;0.10;;;9.00;99.90;;;;;;5151969;27;20331;-78
2022/12/25 11:06:01;;;;;;;3.67;1.70;;;9.10;99.90;;;;;;5150421;27;20556;-78
2022/12/25 11:08:30;;;;;;;0.08;0.08;;;9.20;99.90;;;;;;5152109;27;20055;-78
2022/12/25 11:10:58;;;;;;;0.03;0.03;;;9.10;99.90;;;;;;5151890;27;20508;-79
2022/12/25 11:13:27;;;;;;;1.08;0.57;;;9.10;99.90;;;;;;5152369;27;20090;-79
2022/12/25 11:16:11;;;;;;;2.13;1.15;;;9.10;99.90;;;;;;5151694;27;20107;-78
2022/12/25 11:18:49;;;;;;;1.88;1.23;;;9.10;99.90;;;;;;5150150;27;20047;-78
2022/12/25 11:21:21;;;;;;;0.30;0.30;;;9.10;99.90;;;;;;5151675;27;20104;-78
2022/12/25 11:23:49;;;;;;;0.75;0.75;;;9.10;99.90;;;;;;5152336;27;20047;-78
2022/12/25 11:26:16;;;;;;;0.93;0.80;;;10.10;99.90;;;;;;5152491;27;20055;-78
2022/12/25 11:28:44;;;;;;;0.32;0.32;;;9.10;99.90;;;;;;5152012;27;20046;-78
2022/12/25 11:31:17;;;;;;;1.40;0.60;;;9.10;99.90;;;;;;5151488;27;20453;-78
2022/12/25 11:34:01;;;;;;;0.40;0.40;;;9.30;99.90;;;;;;5152183;27;20464;-78
2022/12/25 11:36:45;;;;;;;0.55;0.25;;;9.20;99.90;;;;;;5151987;27;20027;-78
2022/12/25 11:39:28;;;;;;;0.43;0.43;;;9.20;99.90;;;;;;5152025;27;20042;-78
2022/12/25 11:42:13;;;;;;;0.95;0.85;;;9.30;99.90;;;;;;5151819;27;20465;-78
2022/12/25 11:45:00;;;;;;;0.55;0.47;;;9.40;99.90;;;;;;5151911;27;20566;-78
2022/12/25 11:47:49;;;;;;;6.32;1.83;;;9.30;99.90;;;;;;5150798;27;20060;-78
2022/12/25 11:50:37;;;;;;;0.00;0.00;;;9.30;99.90;;;;;;5151529;27;20039;-78
2022/12/25 11:53:13;;;;;;;2.38;1.35;;;9.30;99.90;;;;;;5150462;27;20038;-78
2022/12/25 11:55:47;;;;;;;0.35;0.28;;;9.30;99.90;;;;;;5150444;27;20083;-79
2022/12/25 11:58:24;;;;;;;0.28;0.28;;;9.30;99.90;;;;;;5151351;27;20043;-78
2022/12/25 12:00:53;;;;;;;0.75;0.55;;;9.40;99.90;;;;;;5151763;27;20069;-78
2022/12/25 12:03:24;;;;;;;0.32;0.20;;;9.50;99.90;;;;;;5151842;27;20083;-78
2022/12/25 12:05:50;;;;;;;1.75;0.55;;;9.40;99.90;;;;;;5151714;27;20058;-78
2022/12/25 12:08:15;;;;;;;0.73;0.73;;;9.50;99.90;;;;;;5151298;27;20049;-78
2022/12/25 12:10:49;;;;;;;0.47;0.43;;;9.40;99.90;;;;;;5151576;27;20043;-79
2022/12/25 12:13:30;;;;;;;0.52;0.43;;;9.30;99.90;;;;;;5133088;27;20074;-79
2022/12/25 12:15:57;;;;;;;0.28;0.28;;;9.40;99.90;;;;;;5151745;27;20114;-78
2022/12/25 12:18:25;;;;;;;0.43;0.35;;;9.40;99.90;;;;;;5151389;27;20062;-78
2022/12/25 12:21:06;;;;;;;0.50;0.32;;;9.40;99.90;;;;;;5132216;27;20050;-78
2022/12/25 12:23:55;;;;;;;0.20;0.20;;;9.40;99.90;;;;;;5151580;27;20515;-78
2022/12/25 12:26:30;;;;;;;0.32;0.32;;;9.40;99.90;;;;;;5151408;27;20047;-78
2022/12/25 12:28:58;;;;;;;0.20;0.20;;;9.30;99.90;;;;;;5150505;27;20793;-78
2022/12/25 12:31:34;;;;;;;0.52;0.52;;;9.30;99.90;;;;;;5151154;27;20046;-78
2022/12/25 12:34:01;;;;;;;0.40;0.40;;;9.30;99.90;;;;;;5150955;27;20097;-78
2022/12/25 12:36:27;;;;;;;1.27;0.60;;;9.50;99.90;;;;;;5151058;27;20039;-78
2022/12/25 12:38:55;;;;;;;3.00;1.05;;;9.30;99.90;;;;;;5151102;27;20038;-78
2022/12/25 12:41:22;;;;;;;1.08;0.55;;;9.30;99.90;;;;;;5151316;27;20421;-78
2022/12/25 12:43:58;;;;;;;1.48;1.13;;;9.40;99.90;;;;;;5151060;27;20418;-78
2022/12/25 12:46:30;;;;;;;0.30;0.20;;;9.40;99.90;;;;;;5150041;27;20084;-78
2022/12/25 12:49:28;;;;;;;0.98;0.80;;;9.40;99.90;;;;;;5150917;27;20133;-78
2022/12/25 12:52:24;;;;;;;0.20;0.20;;;9.40;99.90;;;;;;5129948;27;20133;-78
2022/12/25 12:55:00;;;;;;;0.45;0.45;;;9.40;99.90;;;;;;5132979;27;20099;-78
2022/12/25 12:57:31;;;;;;;3.10;2.45;;;9.40;99.90;;;;;;5150964;27;20042;-78
2022/12/25 12:59:58;;;;;;;0.82;0.73;;;9.40;99.90;;;;;;5150586;27;20062;-78
2022/12/25 13:02:42;;;;;;;1.75;1.48;;;9.40;99.90;;;;;;5140606;27;20054;-79
2022/12/25 13:05:40;;;;;;;1.63;1.02;;;9.40;99.90;;;;;;5149441;27;20043;-79
2022/12/25 13:08:26;;;;;;;0.50;0.50;;;9.50;99.90;;;;;;5089969;27;20035;-78
2022/12/25 13:11:21;;;;;;;0.57;0.52;;;9.50;99.90;;;;;;5148864;27;20042;-78
2022/12/25 13:13:49;;;;;;;1.23;1.13;;;9.50;99.90;;;;;;5149499;27;20152;-78
2022/12/25 13:16:22;;;;;;;4.15;2.80;;;10.50;99.90;;;;;;5149163;27;20042;-78
2022/12/25 13:18:51;;;;;;;1.67;1.40;;;9.40;99.90;;;;;;5148925;27;20434;-78
2022/12/25 13:21:20;;;;;;;0.63;0.40;;;9.40;99.90;;;;;;5149331;27;20053;-78
2022/12/25 13:23:46;;;;;;;3.63;1.48;;;9.40;99.90;;;;;;5149394;27;20058;-78
2022/12/25 13:26:15;;;;;;;0.65;0.47;;;9.40;99.90;;;;;;5149552;27;20054;-78
2022/12/25 13:28:41;;;;;;;1.83;1.13;;;9.30;99.90;;;;;;5148957;27;20126;-78
2022/12/25 13:31:24;;;;;;;0.43;0.43;;;9.30;99.90;;;;;;5149342;27;20065;-79
2022/12/25 13:34:04;;;;;;;0.90;0.65;;;9.40;99.90;;;;;;5149714;27;20034;-79
2022/12/25 13:36:37;;;;;;;1.48;1.33;;;9.30;99.90;;;;;;5150241;27;20370;-79
2022/12/25 13:39:07;;;;;;;2.67;1.30;;;9.30;99.90;;;;;;5150882;27;20035;-79
2022/12/25 13:42:04;;;;;;;0.63;0.55;;;9.20;99.90;;;;;;5154906;27;20049;-79
2022/12/25 13:44:50;;;;;;;1.38;1.27;;;9.30;99.90;;;;;;5155372;27;20047;-79
2022/12/25 13:47:25;;;;;;;3.83;2.25;;;9.20;99.90;;;;;;5154465;27;20070;-79
2022/12/25 13:49:53;;;;;;;0.55;0.55;;;9.20;99.90;;;;;;5153236;27;20042;-79
2022/12/25 13:52:37;;;;;;;2.80;1.38;;;9.10;99.90;;;;;;5154483;27;20047;-79
2022/12/25 13:55:14;;;;;;;1.33;1.20;;;9.10;99.90;;;;;;5153842;27;20027;-79
2022/12/25 13:57:44;;;;;;;;;;;9.10;99.90;;;;;;5153393;27;20541;-79
2022/12/25 14:00:29;;;;;;;0.57;0.57;;;9.10;99.90;;;;;;5152366;27;19946;-79
2022/12/25 14:02:56;;;;;;;1.35;1.05;;;9.00;99.90;;;;;;5152277;27;20087;-79
2022/12/25 14:05:28;;;;;;;1.33;1.23;;;9.10;99.90;;;;;;5153804;27;20092;-79
2022/12/25 14:07:56;;;;;;;1.45;1.33;;;9.10;99.90;;;;;;5152761;27;20091;-79
2022/12/25 14:10:24;;;;;;;1.85;1.00;;;9.10;99.90;;;;;;5152525;27;20140;-79
2022/12/25 14:12:53;;;;;;;0.60;0.57;;;9.10;99.90;;;;;;5153290;27;20045;-79
2022/12/25 14:15:21;;;;;;;1.73;1.63;;;9.00;99.90;;;;;;5152007;27;20082;-79
2022/12/25 14:17:48;;;;;;;3.33;2.03;;;9.00;99.90;;;;;;5148864;27;20058;-79
2022/12/25 14:20:29;;;;;;;3.30;1.02;;;9.00;99.90;;;;;;5151539;27;20066;-79
2022/12/25 14:22:57;;;;;;;1.08;0.98;;;9.10;99.90;;;;;;5151915;27;20115;-78
2022/12/25 14:25:32;;;;;;;1.70;1.60;;;9.00;99.90;;;;;;5153237;27;20082;-78
2022/12/25 14:28:03;;;;;;;3.63;1.92;;;9.10;99.90;;;;;;5153185;27;20074;-78
2022/12/25 14:30:29;;;;;;;3.78;2.00;;;9.00;99.90;;;;;;5150808;27;20103;-78
2022/12/25 14:32:55;;;;;;;4.60;1.33;;;9.00;99.90;;;;;;5153024;27;20038;-78
2022/12/25 14:35:22;;;;;;;0.30;0.30;;;9.00;99.90;;;;;;5151909;27;20524;-78
2022/12/25 14:37:59;;;;;;;1.25;1.05;;;8.90;99.90;;;;;;5152131;27;20046;-78
2022/12/25 14:40:30;;;;;;;1.25;1.05;;;9.10;99.90;;;;;;5152866;27;20446;-78
2022/12/25 14:43:02;;;;;;;0.10;0.10;;;9.10;99.90;;;;;;5134568;27;20050;-78
2022/12/25 14:45:33;;;;;;;1.42;1.33;;;9.00;99.90;;;;;;5152574;27;20043;-78
2022/12/25 14:48:12;;;;;;;0.35;0.35;;;9.00;99.90;;;;;;5152544;27;20043;-78
2022/12/25 14:50:43;;;;;;;2.00;1.63;;;9.00;99.90;;;;;;5151967;27;20042;-78
2022/12/25 14:53:20;;;;;;;0.68;0.57;;;8.90;99.90;;;;;;5152652;27;20038;-78
2022/12/25 14:55:50;;;;;;;1.55;0.85;;;8.90;99.90;;;;;;5149623;27;20039;-78
2022/12/25 14:58:24;;;;;;;1.27;1.08;;;9.00;99.90;;;;;;5149268;27;20039;-78
2022/12/25 15:00:56;;;;;;;1.45;1.35;;;9.00;99.90;;;;;;5130028;27;20067;-78